sensor_id;sensor_type;location;lat;lon;timestamp;pressure;altitude;pressure_sealevel;temperature;humidity
66668;BME280;57205;51.438;-2.006;2023-02-03T00:01:47;102244.69;;;9.12;100.00
66668;BME280;57205;51.438;-2.006;2023-02-03T00:04:13;102252.06;;;9.10;100.00
66668;BME280;57205;51.438;-2.006;2023-02-03T00:06:38;102254.56;;;9.05;100.00
66668;BME280;57205;51.438;-2.006;2023-02-03T00:09:04;102257.44;;;9.04;100.00
66668;BME280;57205;51.438;-2.006;2023-02-03T00:11:29;102262.38;;;9.00;100.00
66668;BME280;57205;51.438;-2.006;2023-02-03T00:13:55;102257.88;;;9.01;100.00
66668;BME280;57205;51.438;-2.006;2023-02-03T00:16:20;102253.16;;;9.03;100.00
66668;BME280;57205;51.438;-2.006;2023-02-03T00:18:45;102252.09;;;9.04;100.00
66668;BME280;57205;51.438;-2.006;2023-02-03T00:21:10;102258.03;;;9.06;100.00
66668;BME280;57205;51.438;-2.006;2023-02-03T00:23:38;102271.63;;;9.04;100.00
66668;BME280;57205;51.438;-2.006;2023-02-03T00:26:14;102271.41;;;9.06;100.00
66668;BME280;57205;51.438;-2.006;2023-02-03T00:28:39;102260.94;;;9.04;100.00
66668;BME280;57205;51.438;-2.006;2023-02-03T00:31:05;102268.13;;;9.04;100.00
66668;BME280;57205;51.438;-2.006;2023-02-03T00:33:30;102274.69;;;9.08;100.00
66668;BME280;57205;51.438;-2.006;2023-02-03T00:35:57;102253.91;;;9.10;100.00
66668;BME280;57205;51.438;-2.006;2023-02-03T00:38:25;102261.94;;;9.10;100.00
66668;BME280;57205;51.438;-2.006;2023-02-03T00:40:51;102257.03;;;9.07;100.00
66668;BME280;57205;51.438;-2.006;2023-02-03T00:43:17;102248.19;;;9.06;100.00
66668;BME280;57205;51.438;-2.006;2023-02-03T00:45:42;102248.81;;;9.08;100.00
66668;BME280;57205;51.438;-2.006;2023-02-03T00:48:08;102239.75;;;9.09;100.00
66668;BME280;57205;51.438;-2.006;2023-02-03T00:50:33;102240.56;;;9.10;100.00
66668;BME280;57205;51.438;-2.006;2023-02-03T00:52:58;102231.09;;;9.14;100.00
66668;BME280;57205;51.438;-2.006;2023-02-03T00:55:23;102225.75;;;9.14;100.00
66668;BME280;57205;51.438;-2.006;2023-02-03T00:57:49;102219.81;;;9.12;100.00
66668;BME280;57205;51.438;-2.006;2023-02-03T01:00:14;102231.72;;;9.09;100.00
66668;BME280;57205;51.438;-2.006;2023-02-03T01:02:39;102235.84;;;9.12;100.00
66668;BME280;57205;51.438;-2.006;2023-02-03T01:05:05;102234.19;;;9.11;100.00
66668;BME280;57205;51.438;-2.006;2023-02-03T01:07:30;102236.06;;;9.10;100.00
66668;BME280;57205;51.438;-2.006;2023-02-03T01:09:56;102231.50;;;9.11;100.00
66668;BME280;57205;51.438;-2.006;2023-02-03T01:12:21;102225.56;;;9.09;100.00
66668;BME280;57205;51.438;-2.006;2023-02-03T01:14:47;102216.97;;;9.07;100.00
66668;BME280;57205;51.438;-2.006;2023-02-03T01:17:12;102201.72;;;9.14;100.00
66668;BME280;57205;51.438;-2.006;2023-02-03T01:19:37;102201.13;;;9.12;100.00
66668;BME280;57205;51.438;-2.006;2023-02-03T01:22:02;102214.88;;;9.09;100.00
66668;BME280;57205;51.438;-2.006;2023-02-03T01:24:28;102213.72;;;9.05;100.00
66668;BME280;57205;51.438;-2.006;2023-02-03T01:26:53;102223.13;;;9.07;100.00
66668;BME280;57205;51.438;-2.006;2023-02-03T01:29:19;102211.41;;;9.08;100.00
66668;BME280;57205;51.438;-2.006;2023-02-03T01:31:44;102208.31;;;9.11;100.00
66668;BME280;57205;51.438;-2.006;2023-02-03T01:34:13;102208.09;;;9.13;100.00
66668;BME280;57205;51.438;-2.006;2023-02-03T01:36:40;102212.22;;;9.09;100.00
66668;BME280;57205;51.438;-2.006;2023-02-03T01:39:05;102216.75;;;9.08;100.00
66668;BME280;57205;51.438;-2.006;2023-02-03T01:41:31;102223.94;;;9.08;100.00
66668;BME280;57205;51.438;-2.006;2023-02-03T01:43:58;102220.03;;;9.10;100.00
66668;BME280;57205;51.438;-2.006;2023-02-03T01:46:30;102233.56;;;9.09;100.00
66668;BME280;57205;51.438;-2.006;2023-02-03T01:49:03;102228.03;;;9.10;100.00
66668;BME280;57205;51.438;-2.006;2023-02-03T01:51:31;102217.75;;;9.14;100.00
66668;BME280;57205;51.438;-2.006;2023-02-03T01:53:56;102215.09;;;9.14;100.00
66668;BME280;57205;51.438;-2.006;2023-02-03T01:56:22;102216.47;;;9.16;100.00
66668;BME280;57205;51.438;-2.006;2023-02-03T01:58:49;102209.75;;;9.14;100.00
66668;BME280;57205;51.438;-2.006;2023-02-03T02:01:15;102207.47;;;9.11;100.00
66668;BME280;57205;51.438;-2.006;2023-02-03T02:03:51;102216.53;;;9.10;100.00
66668;BME280;57205;51.438;-2.006;2023-02-03T02:06:17;102228.44;;;9.14;100.00
66668;BME280;57205;51.438;-2.006;2023-02-03T02:08:43;102232.13;;;9.13;100.00
66668;BME280;57205;51.438;-2.006;2023-02-03T02:11:10;102227.38;;;9.15;100.00
66668;BME280;57205;51.438;-2.006;2023-02-03T02:13:35;102231.09;;;9.14;100.00
66668;BME280;57205;51.438;-2.006;2023-02-03T02:29:16;102238.66;;;9.17;100.00
66668;BME280;57205;51.438;-2.006;2023-02-03T02:34:30;102243.56;;;9.20;100.00
66668;BME280;57205;51.438;-2.006;2023-02-03T02:37:00;102239.28;;;9.19;100.00
66668;BME280;57205;51.438;-2.006;2023-02-03T02:44:38;102249.50;;;9.22;100.00
66668;BME280;57205;51.438;-2.006;2023-02-03T02:47:06;102241.34;;;9.17;100.00
66668;BME280;57205;51.438;-2.006;2023-02-03T02:49:40;102244.63;;;9.19;100.00
66668;BME280;57205;51.438;-2.006;2023-02-03T02:52:07;102236.16;;;9.22;100.00
66668;BME280;57205;51.438;-2.006;2023-02-03T02:54:35;102238.44;;;9.25;100.00
66668;BME280;57205;51.438;-2.006;2023-02-03T02:57:02;102238.44;;;9.25;100.00
66668;BME280;57205;51.438;-2.006;2023-02-03T02:59:29;102243.16;;;9.23;100.00
66668;BME280;57205;51.438;-2.006;2023-02-03T03:01:54;102233.50;;;9.22;100.00
66668;BME280;57205;51.438;-2.006;2023-02-03T03:04:21;102235.97;;;9.23;100.00
66668;BME280;57205;51.438;-2.006;2023-02-03T03:07:03;102230.22;;;9.20;100.00
66668;BME280;57205;51.438;-2.006;2023-02-03T03:09:32;102216.69;;;9.15;100.00
66668;BME280;57205;51.438;-2.006;2023-02-03T03:12:22;102224.09;;;9.13;100.00
66668;BME280;57205;51.438;-2.006;2023-02-03T03:14:47;102220.63;;;9.12;100.00
66668;BME280;57205;51.438;-2.006;2023-02-03T03:17:16;102222.72;;;9.10;100.00
66668;BME280;57205;51.438;-2.006;2023-02-03T03:19:44;102220.19;;;9.15;100.00
66668;BME280;57205;51.438;-2.006;2023-02-03T03:22:12;102218.53;;;9.14;100.00
66668;BME280;57205;51.438;-2.006;2023-02-03T03:24:40;102232.72;;;9.15;100.00
66668;BME280;57205;51.438;-2.006;2023-02-03T03:27:14;102226.78;;;9.13;100.00
66668;BME280;57205;51.438;-2.006;2023-02-03T03:30:02;102233.56;;;9.09;100.00
66668;BME280;57205;51.438;-2.006;2023-02-03T03:32:29;102244.47;;;9.07;100.00
66668;BME280;57205;51.438;-2.006;2023-02-03T03:34:56;102246.53;;;9.05;100.00
66668;BME280;57205;51.438;-2.006;2023-02-03T03:37:24;102247.97;;;9.08;100.00
66668;BME280;57205;51.438;-2.006;2023-02-03T03:45:15;102241.84;;;9.01;100.00
66668;BME280;57205;51.438;-2.006;2023-02-03T03:50:44;102237.97;;;8.97;100.00
66668;BME280;57205;51.438;-2.006;2023-02-03T03:53:10;102235.31;;;8.97;100.00
66668;BME280;57205;51.438;-2.006;2023-02-03T03:55:37;102240.66;;;8.97;100.00
66668;BME280;57205;51.438;-2.006;2023-02-03T03:58:05;102244.94;;;8.98;100.00
66668;BME280;57205;51.438;-2.006;2023-02-03T04:00:33;102235.91;;;8.99;100.00
66668;BME280;57205;51.438;-2.006;2023-02-03T04:03:00;102245.53;;;9.00;100.00
66668;BME280;57205;51.438;-2.006;2023-02-03T04:05:28;102249.44;;;9.04;100.00
66668;BME280;57205;51.438;-2.006;2023-02-03T04:07:54;102253.16;;;9.03;100.00
66668;BME280;57205;51.438;-2.006;2023-02-03T04:12:48;102256.22;;;9.00;100.00
66668;BME280;57205;51.438;-2.006;2023-02-03T04:15:13;102247.19;;;9.01;100.00
66668;BME280;57205;51.438;-2.006;2023-02-03T04:17:38;102259.34;;;8.97;100.00
66668;BME280;57205;51.438;-2.006;2023-02-03T04:20:04;102257.28;;;8.99;100.00
66668;BME280;57205;51.438;-2.006;2023-02-03T04:22:29;102261.56;;;9.00;100.00
66668;BME280;57205;51.438;-2.006;2023-02-03T04:24:54;102251.50;;;9.02;100.00
66668;BME280;57205;51.438;-2.006;2023-02-03T04:27:23;102249.03;;;9.00;100.00
66668;BME280;57205;51.438;-2.006;2023-02-03T04:29:48;102249.88;;;9.01;100.00
66668;BME280;57205;51.438;-2.006;2023-02-03T04:32:14;102243.09;;;8.98;100.00
66668;BME280;57205;51.438;-2.006;2023-02-03T04:34:40;102246.19;;;8.95;100.00
66668;BME280;57205;51.438;-2.006;2023-02-03T04:37:05;102248.03;;;8.95;100.00
66668;BME280;57205;51.438;-2.006;2023-02-03T04:39:30;102245.59;;;8.93;100.00
66668;BME280;57205;51.438;-2.006;2023-02-03T04:41:55;102250.94;;;8.93;100.00
66668;BME280;57205;51.438;-2.006;2023-02-03T04:44:21;102256.50;;;8.92;100.00
66668;BME280;57205;51.438;-2.006;2023-02-03T04:46:46;102258.97;;;8.86;100.00
66668;BME280;57205;51.438;-2.006;2023-02-03T04:49:11;102267.78;;;8.87;100.00
66668;BME280;57205;51.438;-2.006;2023-02-03T04:51:36;102270.69;;;8.85;100.00
66668;BME280;57205;51.438;-2.006;2023-02-03T04:54:02;102263.91;;;8.83;100.00
66668;BME280;57205;51.438;-2.006;2023-02-03T04:56:27;102252.22;;;8.77;100.00
66668;BME280;57205;51.438;-2.006;2023-02-03T04:58:52;102250.59;;;8.76;100.00
66668;BME280;57205;51.438;-2.006;2023-02-03T05:01:17;102251.41;;;8.77;100.00
66668;BME280;57205;51.438;-2.006;2023-02-03T05:03:43;102253.50;;;8.75;100.00
66668;BME280;57205;51.438;-2.006;2023-02-03T05:06:08;102264.56;;;8.78;100.00
66668;BME280;57205;51.438;-2.006;2023-02-03T05:08:33;102258.78;;;8.81;100.00
66668;BME280;57205;51.438;-2.006;2023-02-03T05:10:58;102268.03;;;8.79;100.00
66668;BME280;57205;51.438;-2.006;2023-02-03T05:13:24;102274.19;;;8.79;100.00
66668;BME280;57205;51.438;-2.006;2023-02-03T05:15:49;102272.75;;;8.83;100.00
66668;BME280;57205;51.438;-2.006;2023-02-03T05:18:14;102280.50;;;8.92;100.00
66668;BME280;57205;51.438;-2.006;2023-02-03T05:20:39;102285.84;;;8.92;100.00
66668;BME280;57205;51.438;-2.006;2023-02-03T05:23:05;102291.38;;;8.90;100.00
66668;BME280;57205;51.438;-2.006;2023-02-03T05:25:30;102300.00;;;8.92;100.00
66668;BME280;57205;51.438;-2.006;2023-02-03T05:27:55;102297.94;;;8.94;100.00
66668;BME280;57205;51.438;-2.006;2023-02-03T05:30:20;102299.38;;;8.97;100.00
66668;BME280;57205;51.438;-2.006;2023-02-03T05:32:47;102299.38;;;8.97;100.00
66668;BME280;57205;51.438;-2.006;2023-02-03T05:35:12;102296.72;;;8.97;100.00
66668;BME280;57205;51.438;-2.006;2023-02-03T05:37:37;102307.38;;;8.97;100.00
66668;BME280;57205;51.438;-2.006;2023-02-03T05:40:03;102300.22;;;8.91;100.00
66668;BME280;57205;51.438;-2.006;2023-02-03T05:42:47;102310.06;;;8.90;100.00
66668;BME280;57205;51.438;-2.006;2023-02-03T05:45:12;102307.22;;;8.85;100.00
66668;BME280;57205;51.438;-2.006;2023-02-03T05:47:37;102309.50;;;8.81;100.00
66668;BME280;57205;51.438;-2.006;2023-02-03T05:50:03;102319.16;;;8.76;100.00
66668;BME280;57205;51.438;-2.006;2023-02-03T05:52:28;102318.34;;;8.75;100.00
66668;BME280;57205;51.438;-2.006;2023-02-03T05:54:53;102325.34;;;8.76;100.00
66668;BME280;57205;51.438;-2.006;2023-02-03T05:57:18;102325.94;;;8.72;100.00
66668;BME280;57205;51.438;-2.006;2023-02-03T05:59:44;102332.31;;;8.71;100.00
66668;BME280;57205;51.438;-2.006;2023-02-03T06:02:09;102345.88;;;8.69;100.00
66668;BME280;57205;51.438;-2.006;2023-02-03T06:04:34;102344.00;;;8.70;100.00
66668;BME280;57205;51.438;-2.006;2023-02-03T06:06:59;102344.22;;;8.75;100.00
66668;BME280;57205;51.438;-2.006;2023-02-03T06:09:25;102346.69;;;8.76;100.00
66668;BME280;57205;51.438;-2.006;2023-02-03T06:11:50;102339.47;;;8.77;100.00
66668;BME280;57205;51.438;-2.006;2023-02-03T06:14:15;102339.69;;;8.75;100.00
66668;BME280;57205;51.438;-2.006;2023-02-03T06:16:40;102346.69;;;8.76;100.00
66668;BME280;57205;51.438;-2.006;2023-02-03T06:19:06;102356.53;;;8.76;100.00
66668;BME280;57205;51.438;-2.006;2023-02-03T06:21:31;102356.97;;;8.73;100.00
66668;BME280;57205;51.438;-2.006;2023-02-03T06:23:56;102359.63;;;8.73;100.00
66668;BME280;57205;51.438;-2.006;2023-02-03T06:26:22;102366.59;;;8.74;100.00
66668;BME280;57205;51.438;-2.006;2023-02-03T06:28:47;102370.47;;;8.78;100.00
66668;BME280;57205;51.438;-2.006;2023-02-03T06:31:12;102370.06;;;8.81;100.00
66668;BME280;57205;51.438;-2.006;2023-02-03T06:33:38;102370.28;;;8.86;100.00
66668;BME280;57205;51.438;-2.006;2023-02-03T06:36:03;102365.13;;;8.84;100.00
66668;BME280;57205;51.438;-2.006;2023-02-03T06:38:28;102360.22;;;8.88;100.00
66668;BME280;57205;51.438;-2.006;2023-02-03T06:40:54;102354.44;;;8.84;100.00
66668;BME280;57205;51.438;-2.006;2023-02-03T06:43:19;102353.81;;;8.82;100.00
66668;BME280;57205;51.438;-2.006;2023-02-03T06:45:44;102354.03;;;8.81;100.00
66668;BME280;57205;51.438;-2.006;2023-02-03T06:48:11;102357.97;;;8.78;100.00
66668;BME280;57205;51.438;-2.006;2023-02-03T06:50:36;102357.53;;;8.81;100.00
66668;BME280;57205;51.438;-2.006;2023-02-03T06:53:01;102363.91;;;8.80;100.00
66668;BME280;57205;51.438;-2.006;2023-02-03T06:55:27;102362.44;;;8.84;100.00
66668;BME280;57205;51.438;-2.006;2023-02-03T06:57:52;102370.88;;;8.81;100.00
66668;BME280;57205;51.438;-2.006;2023-02-03T07:00:17;102376.22;;;8.81;100.00
66668;BME280;57205;51.438;-2.006;2023-02-03T07:02:43;102375.59;;;8.79;100.00
66668;BME280;57205;51.438;-2.006;2023-02-03T07:05:08;102374.78;;;8.79;100.00
66668;BME280;57205;51.438;-2.006;2023-02-03T07:07:34;102377.44;;;8.79;100.00
66668;BME280;57205;51.438;-2.006;2023-02-03T07:09:59;102376.84;;;8.77;100.00
66668;BME280;57205;51.438;-2.006;2023-02-03T07:12:25;102375.00;;;8.77;100.00
66668;BME280;57205;51.438;-2.006;2023-02-03T07:14:50;102376.66;;;8.78;100.00
66668;BME280;57205;51.438;-2.006;2023-02-03T07:17:15;102373.56;;;8.81;100.00
66668;BME280;57205;51.438;-2.006;2023-02-03T07:19:41;102375.59;;;8.79;100.00
66668;BME280;57205;51.438;-2.006;2023-02-03T07:22:06;102371.09;;;8.80;100.00
66668;BME280;57205;51.438;-2.006;2023-02-03T07:24:33;102375.44;;;8.74;100.00
66668;BME280;57205;51.438;-2.006;2023-02-03T07:26:58;102366.81;;;8.72;100.00
66668;BME280;57205;51.438;-2.006;2023-02-03T07:29:23;102373.81;;;8.67;100.00
66668;BME280;57205;51.438;-2.006;2023-02-03T07:31:48;102374.00;;;8.65;100.00
66668;BME280;57205;51.438;-2.006;2023-02-03T07:34:13;102380.16;;;8.59;100.00
66668;BME280;57205;51.438;-2.006;2023-02-03T07:36:39;102386.53;;;8.52;100.00
66668;BME280;57205;51.438;-2.006;2023-02-03T07:39:05;102401.53;;;8.46;100.00
66668;BME280;57205;51.438;-2.006;2023-02-03T07:41:30;102408.50;;;8.47;100.00
66668;BME280;57205;51.438;-2.006;2023-02-03T07:43:56;102410.56;;;8.45;100.00
66668;BME280;57205;51.438;-2.006;2023-02-03T07:46:21;102414.88;;;8.46;100.00
66668;BME280;57205;51.438;-2.006;2023-02-03T07:48:46;102411.59;;;8.44;100.00
66668;BME280;57205;51.438;-2.006;2023-02-03T07:51:12;102404.00;;;8.41;100.00
66668;BME280;57205;51.438;-2.006;2023-02-03T07:53:37;102409.13;;;8.36;100.00
66668;BME280;57205;51.438;-2.006;2023-02-03T07:56:03;102408.72;;;8.39;100.00
66668;BME280;57205;51.438;-2.006;2023-02-03T07:58:29;102411.38;;;8.39;100.00
66668;BME280;57205;51.438;-2.006;2023-02-03T08:00:55;102413.44;;;8.37;100.00
66668;BME280;57205;51.438;-2.006;2023-02-03T08:03:20;102418.78;;;8.37;100.00
66668;BME280;57205;51.438;-2.006;2023-02-03T08:05:45;102434.16;;;8.35;100.00
66668;BME280;57205;51.438;-2.006;2023-02-03T08:08:11;102436.22;;;8.33;100.00
66668;BME280;57205;51.438;-2.006;2023-02-03T08:10:36;102434.59;;;8.32;100.00
66668;BME280;57205;51.438;-2.006;2023-02-03T08:13:01;102442.38;;;8.34;100.00
66668;BME280;57205;51.438;-2.006;2023-02-03T08:15:27;102438.88;;;8.33;100.00
66668;BME280;57205;51.438;-2.006;2023-02-03T08:17:52;102437.84;;;8.34;100.00
66668;BME280;57205;51.438;-2.006;2023-02-03T08:20:17;102444.81;;;8.35;100.00
66668;BME280;57205;51.438;-2.006;2023-02-03T08:22:43;102443.78;;;8.36;100.00
66668;BME280;57205;51.438;-2.006;2023-02-03T08:25:09;102453.22;;;8.39;100.00
66668;BME280;57205;51.438;-2.006;2023-02-03T08:27:34;102454.69;;;8.41;100.00
66668;BME280;57205;51.438;-2.006;2023-02-03T08:30:00;102456.09;;;8.44;100.00
66668;BME280;57205;51.438;-2.006;2023-02-03T08:32:27;102464.50;;;8.47;100.00
66668;BME280;57205;51.438;-2.006;2023-02-03T08:34:53;102470.28;;;8.51;100.00
66668;BME280;57205;51.438;-2.006;2023-02-03T08:37:19;102473.53;;;8.53;100.00
66668;BME280;57205;51.438;-2.006;2023-02-03T08:39:44;102479.91;;;8.58;100.00
66668;BME280;57205;51.438;-2.006;2023-02-03T08:42:10;102486.88;;;8.66;100.00
66668;BME280;57205;51.438;-2.006;2023-02-03T08:44:35;102481.56;;;8.72;100.00
66668;BME280;57205;51.438;-2.006;2023-02-03T08:47:03;102486.09;;;8.78;100.00
66668;BME280;57205;51.438;-2.006;2023-02-03T08:49:29;102479.28;;;8.89;100.00
66668;BME280;57205;51.438;-2.006;2023-02-03T08:51:55;102495.91;;;8.98;100.00
66668;BME280;57205;51.438;-2.006;2023-02-03T08:54:20;102489.72;;;9.04;100.00
66668;BME280;57205;51.438;-2.006;2023-02-03T08:56:46;102484.19;;;9.12;100.00
66668;BME280;57205;51.438;-2.006;2023-02-03T08:59:11;102489.72;;;9.17;100.00
66668;BME280;57205;51.438;-2.006;2023-02-03T09:01:37;102484.94;;;9.25;100.00
66668;BME280;57205;51.438;-2.006;2023-02-03T09:04:04;102489.25;;;9.33;100.00
66668;BME280;57205;51.438;-2.006;2023-02-03T09:06:32;102486.13;;;9.42;100.00
66668;BME280;57205;51.438;-2.006;2023-02-03T09:08:58;102484.28;;;9.49;100.00
66668;BME280;57205;51.438;-2.006;2023-02-03T09:11:23;102491.81;;;9.59;100.00
66668;BME280;57205;51.438;-2.006;2023-02-03T09:13:48;102487.09;;;9.67;100.00
66668;BME280;57205;51.438;-2.006;2023-02-03T09:16:16;102482.34;;;9.69;100.00
66668;BME280;57205;51.438;-2.006;2023-02-03T09:18:42;102484.19;;;9.69;100.00
66668;BME280;57205;51.438;-2.006;2023-02-03T09:21:08;102484.59;;;9.72;100.00
66668;BME280;57205;51.438;-2.006;2023-02-03T09:23:38;102496.88;;;9.80;100.00
66668;BME280;57205;51.438;-2.006;2023-02-03T09:26:03;102507.75;;;9.85;100.00
66668;BME280;57205;51.438;-2.006;2023-02-03T09:28:29;102508.56;;;9.92;100.00
66668;BME280;57205;51.438;-2.006;2023-02-03T09:30:58;102508.91;;;10.02;100.00
66668;BME280;57205;51.438;-2.006;2023-02-03T09:33:24;102508.00;;;10.21;100.00
66668;BME280;57205;51.438;-2.006;2023-02-03T09:35:52;102503.56;;;10.40;100.00
66668;BME280;57205;51.438;-2.006;2023-02-03T09:38:18;102506.28;;;10.64;100.00
66668;BME280;57205;51.438;-2.006;2023-02-03T09:40:43;102507.13;;;10.83;100.00
66668;BME280;57205;51.438;-2.006;2023-02-03T09:43:20;102509.34;;;11.11;100.00
66668;BME280;57205;51.438;-2.006;2023-02-03T09:45:51;102506.06;;;11.45;100.00
66668;BME280;57205;51.438;-2.006;2023-02-03T09:48:18;102514.81;;;11.76;100.00
66668;BME280;57205;51.438;-2.006;2023-02-03T09:50:45;102508.84;;;12.22;100.00
66668;BME280;57205;51.438;-2.006;2023-02-03T09:53:21;102510.69;;;12.63;100.00
66668;BME280;57205;51.438;-2.006;2023-02-03T09:55:47;102523.53;;;12.96;100.00
66668;BME280;57205;51.438;-2.006;2023-02-03T09:58:16;102533.50;;;13.30;100.00
66668;BME280;57205;51.438;-2.006;2023-02-03T10:01:00;102540.16;;;13.50;100.00
66668;BME280;57205;51.438;-2.006;2023-02-03T10:13:50;102565.84;;;14.09;95.62
66668;BME280;57205;51.438;-2.006;2023-02-03T10:16:20;102570.50;;;13.86;96.77
66668;BME280;57205;51.438;-2.006;2023-02-03T10:18:52;102574.94;;;13.80;96.21
66668;BME280;57205;51.438;-2.006;2023-02-03T10:24:04;102573.44;;;13.61;97.11
66668;BME280;57205;51.438;-2.006;2023-02-03T10:26:31;102581.44;;;13.33;98.94
66668;BME280;57205;51.438;-2.006;2023-02-03T10:28:57;102576.50;;;13.07;100.00
66668;BME280;57205;51.438;-2.006;2023-02-03T10:31:27;102572.97;;;12.95;100.00
66668;BME280;57205;51.438;-2.006;2023-02-03T10:33:58;102578.66;;;12.75;100.00
66668;BME280;57205;51.438;-2.006;2023-02-03T10:36:33;102588.31;;;12.64;100.00
66668;BME280;57205;51.438;-2.006;2023-02-03T10:39:09;102585.91;;;12.33;100.00
66668;BME280;57205;51.438;-2.006;2023-02-03T10:41:36;102589.72;;;12.26;100.00
66668;BME280;57205;51.438;-2.006;2023-02-03T10:44:02;102592.81;;;12.11;100.00
66668;BME280;57205;51.438;-2.006;2023-02-03T10:46:30;102591.16;;;11.92;100.00
66668;BME280;57205;51.438;-2.006;2023-02-03T10:48:57;102592.28;;;11.85;100.00
66668;BME280;57205;51.438;-2.006;2023-02-03T10:51:23;102597.34;;;11.74;100.00
66668;BME280;57205;51.438;-2.006;2023-02-03T10:53:49;102579.50;;;11.62;100.00
66668;BME280;57205;51.438;-2.006;2023-02-03T10:56:36;102571.88;;;11.65;100.00
66668;BME280;57205;51.438;-2.006;2023-02-03T10:59:02;102573.28;;;11.68;100.00
66668;BME280;57205;51.438;-2.006;2023-02-03T11:04:03;102573.28;;;11.68;100.00
66668;BME280;57205;51.438;-2.006;2023-02-03T11:06:29;102582.09;;;11.75;100.00
66668;BME280;57205;51.438;-2.006;2023-02-03T11:08:55;102576.72;;;11.75;100.00
66668;BME280;57205;51.438;-2.006;2023-02-03T11:11:22;102572.09;;;11.82;100.00
66668;BME280;57205;51.438;-2.006;2023-02-03T11:14:31;102584.00;;;11.86;100.00
66668;BME280;57205;51.438;-2.006;2023-02-03T11:16:37;102577.44;;;11.82;100.00
66668;BME280;57205;51.438;-2.006;2023-02-03T11:26:35;102558.44;;;11.84;100.00
66668;BME280;57205;51.438;-2.006;2023-02-03T11:29:03;102561.53;;;11.87;100.00
66668;BME280;57205;51.438;-2.006;2023-02-03T11:31:31;102557.78;;;11.88;100.00
66668;BME280;57205;51.438;-2.006;2023-02-03T11:34:14;102552.81;;;11.73;100.00
66668;BME280;57205;51.438;-2.006;2023-02-03T11:36:40;102551.44;;;11.64;100.00
66668;BME280;57205;51.438;-2.006;2023-02-03T11:39:09;102552.34;;;11.58;100.00
66668;BME280;57205;51.438;-2.006;2023-02-03T11:41:36;102563.56;;;11.49;100.00
66668;BME280;57205;51.438;-2.006;2023-02-03T11:44:09;102563.44;;;11.44;100.00
66668;BME280;57205;51.438;-2.006;2023-02-03T11:46:35;102565.50;;;11.42;100.00
66668;BME280;57205;51.438;-2.006;2023-02-03T11:49:10;102556.41;;;11.43;100.00
66668;BME280;57205;51.438;-2.006;2023-02-03T11:51:43;102548.38;;;11.43;100.00
66668;BME280;57205;51.438;-2.006;2023-02-03T11:56:57;102532.75;;;11.40;100.00
66668;BME280;57205;51.438;-2.006;2023-02-03T12:09:59;102530.19;;;11.27;100.00
66668;BME280;57205;51.438;-2.006;2023-02-03T12:12:44;102525.81;;;11.32;100.00
66668;BME280;57205;51.438;-2.006;2023-02-03T12:23:29;102528.81;;;11.42;100.00
66668;BME280;57205;51.438;-2.006;2023-02-03T12:33:25;102559.34;;;11.17;100.00
66668;BME280;57205;51.438;-2.006;2023-02-03T12:35:54;102559.34;;;11.17;100.00
66668;BME280;57205;51.438;-2.006;2023-02-03T12:38:27;102566.00;;;11.14;100.00
66668;BME280;57205;51.438;-2.006;2023-02-03T12:40:58;102576.84;;;11.19;100.00
66668;BME280;57205;51.438;-2.006;2023-02-03T12:43:26;102574.63;;;11.16;100.00
66668;BME280;57205;51.438;-2.006;2023-02-03T12:46:03;102568.88;;;11.13;100.00
66668;BME280;57205;51.438;-2.006;2023-02-03T12:51:19;102579.38;;;11.14;100.00
66668;BME280;57205;51.438;-2.006;2023-02-03T12:53:50;102577.94;;;11.12;100.00
66668;BME280;57205;51.438;-2.006;2023-02-03T12:56:19;102575.13;;;11.07;100.00
66668;BME280;57205;51.438;-2.006;2023-02-03T12:58:48;102574.38;;;11.00;100.00
66668;BME280;57205;51.438;-2.006;2023-02-03T13:03:50;102582.41;;;11.00;100.00
66668;BME280;57205;51.438;-2.006;2023-02-03T13:11:47;102592.78;;;10.90;100.00
66668;BME280;57205;51.438;-2.006;2023-02-03T13:19:42;102584.88;;;10.95;100.00
66668;BME280;57205;51.438;-2.006;2023-02-03T13:22:12;102591.22;;;11.00;100.00
66668;BME280;57205;51.438;-2.006;2023-02-03T13:24:40;102587.09;;;11.04;100.00
66668;BME280;57205;51.438;-2.006;2023-02-03T13:30:04;102596.31;;;11.08;100.00
66668;BME280;57205;51.438;-2.006;2023-02-03T13:32:42;102587.25;;;11.09;100.00
66668;BME280;57205;51.438;-2.006;2023-02-03T13:42:57;102575.22;;;11.18;100.00
66668;BME280;57205;51.438;-2.006;2023-02-03T13:45:25;102578.09;;;11.17;100.00
66668;BME280;57205;51.438;-2.006;2023-02-03T13:48:13;102588.63;;;11.18;100.00
66668;BME280;57205;51.438;-2.006;2023-02-03T13:50:37;102586.75;;;11.19;100.00
66668;BME280;57205;51.438;-2.006;2023-02-03T13:53:03;102579.91;;;11.23;100.00
66668;BME280;57205;51.438;-2.006;2023-02-03T13:55:50;102578.88;;;11.24;100.00
66668;BME280;57205;51.438;-2.006;2023-02-03T13:58:21;102570.63;;;11.25;100.00
66668;BME280;57205;51.438;-2.006;2023-02-03T14:03:16;102572.34;;;11.38;100.00
66668;BME280;57205;51.438;-2.006;2023-02-03T14:05:43;102565.06;;;11.45;100.00
66668;BME280;57205;51.438;-2.006;2023-02-03T14:08:40;102571.38;;;11.50;100.00
66668;BME280;57205;51.438;-2.006;2023-02-03T14:13:44;102574.44;;;11.54;100.00
66668;BME280;57205;51.438;-2.006;2023-02-03T14:16:27;102567.91;;;11.50;100.00
66668;BME280;57205;51.438;-2.006;2023-02-03T14:18:57;102573.09;;;11.45;100.00
66668;BME280;57205;51.438;-2.006;2023-02-03T14:21:23;102573.84;;;11.52;100.00
66668;BME280;57205;51.438;-2.006;2023-02-03T14:23:58;102574.91;;;11.51;100.00
66668;BME280;57205;51.438;-2.006;2023-02-03T14:26:34;102575.25;;;11.54;100.00
66668;BME280;57205;51.438;-2.006;2023-02-03T14:29:02;102569.75;;;11.49;100.00
66668;BME280;57205;51.438;-2.006;2023-02-03T14:31:28;102582.34;;;11.49;100.00
66668;BME280;57205;51.438;-2.006;2023-02-03T14:46:58;102575.16;;;11.43;100.00
66668;BME280;57205;51.438;-2.006;2023-02-03T14:49:44;102583.22;;;11.43;100.00